sensor_id;sensor_type;location;lat;lon;timestamp;pressure;altitude;pressure_sealevel;temperature;humidity
12801;BME280;6464;42.494;27.470;2023-07-20T04:01:56;99559.44;;;24.27;100.00
12801;BME280;6464;42.494;27.470;2023-07-20T04:04:23;99600.75;;;24.37;100.00
12801;BME280;6464;42.494;27.470;2023-07-20T04:06:56;99597.91;;;24.19;100.00
12801;BME280;6464;42.494;27.470;2023-07-20T04:09:23;99588.81;;;24.30;100.00
12801;BME280;6464;42.494;27.470;2023-07-20T04:11:51;99540.50;;;23.99;100.00
12801;BME280;6464;42.494;27.470;2023-07-20T04:14:20;99568.97;;;24.21;100.00
12801;BME280;6464;42.494;27.470;2023-07-20T04:16:55;99613.06;;;24.59;100.00
12801;BME280;6464;42.494;27.470;2023-07-20T04:19:25;99600.13;;;24.63;100.00
12801;BME280;6464;42.494;27.470;2023-07-20T04:21:52;99536.91;;;24.47;100.00
12801;BME280;6464;42.494;27.470;2023-07-20T04:24:19;99564.25;;;24.99;100.00
12801;BME280;6464;42.494;27.470;2023-07-20T04:26:46;99517.50;;;24.81;100.00
12801;BME280;6464;42.494;27.470;2023-07-20T04:29:16;99547.31;;;25.17;100.00
12801;BME280;6464;42.494;27.470;2023-07-20T04:31:48;99553.34;;;25.28;100.00
12801;BME280;6464;42.494;27.470;2023-07-20T04:34:18;99516.25;;;25.03;100.00
12801;BME280;6464;42.494;27.470;2023-07-20T04:36:48;99529.97;;;24.82;100.00
12801;BME280;6464;42.494;27.470;2023-07-20T04:39:16;99547.53;;;24.96;100.00
12801;BME280;6464;42.494;27.470;2023-07-20T04:41:43;99502.75;;;24.75;100.00
12801;BME280;6464;42.494;27.470;2023-07-20T04:44:13;99533.88;;;24.97;100.00
12801;BME280;6464;42.494;27.470;2023-07-20T04:46:42;99533.72;;;24.99;100.00
12801;BME280;6464;42.494;27.470;2023-07-20T04:49:10;99523.75;;;25.09;100.00
12801;BME280;6464;42.494;27.470;2023-07-20T04:51:39;99534.09;;;25.13;100.00
12801;BME280;6464;42.494;27.470;2023-07-20T04:54:06;99486.00;;;24.81;100.00
12801;BME280;6464;42.494;27.470;2023-07-20T04:59:12;99537.19;;;25.19;100.00
12801;BME280;6464;42.494;27.470;2023-07-20T05:01:42;99517.06;;;25.13;100.00
12801;BME280;6464;42.494;27.470;2023-07-20T05:04:10;99529.84;;;25.38;100.00
12801;BME280;6464;42.494;27.470;2023-07-20T05:06:38;99513.28;;;25.69;100.00
12801;BME280;6464;42.494;27.470;2023-07-20T05:09:08;99524.34;;;25.94;100.00
12801;BME280;6464;42.494;27.470;2023-07-20T05:11:35;99500.78;;;26.04;100.00
12801;BME280;6464;42.494;27.470;2023-07-20T05:14:01;99496.19;;;26.22;100.00
12801;BME280;6464;42.494;27.470;2023-07-20T05:16:28;99470.38;;;26.02;100.00
12801;BME280;6464;42.494;27.470;2023-07-20T05:18:59;99481.94;;;26.12;100.00
12801;BME280;6464;42.494;27.470;2023-07-20T05:21:26;99475.69;;;26.11;100.00
12801;BME280;6464;42.494;27.470;2023-07-20T05:23:56;99473.25;;;26.26;100.00
12801;BME280;6464;42.494;27.470;2023-07-20T05:26:23;99491.59;;;26.40;100.00
12801;BME280;6464;42.494;27.470;2023-07-20T05:28:50;99494.72;;;26.28;100.00
12801;BME280;6464;42.494;27.470;2023-07-20T05:31:16;99437.09;;;26.27;100.00
12801;BME280;6464;42.494;27.470;2023-07-20T05:33:48;99470.78;;;26.67;100.00
12801;BME280;6464;42.494;27.470;2023-07-20T05:36:25;99469.94;;;26.67;100.00
12801;BME280;6464;42.494;27.470;2023-07-20T05:38:52;99450.53;;;26.71;100.00
12801;BME280;6464;42.494;27.470;2023-07-20T05:41:22;99458.06;;;27.02;100.00
12801;BME280;6464;42.494;27.470;2023-07-20T05:43:49;99462.88;;;27.08;100.00
12801;BME280;6464;42.494;27.470;2023-07-20T05:46:19;99457.13;;;27.11;100.00
12801;BME280;6464;42.494;27.470;2023-07-20T05:48:47;99441.56;;;27.21;100.00
12801;BME280;6464;42.494;27.470;2023-07-20T05:51:14;99444.97;;;27.23;100.00
12801;BME280;6464;42.494;27.470;2023-07-20T05:53:41;99455.13;;;27.29;100.00
12801;BME280;6464;42.494;27.470;2023-07-20T05:56:10;99429.56;;;27.32;100.00
12801;BME280;6464;42.494;27.470;2023-07-20T05:58:38;99455.81;;;27.23;100.00
12801;BME280;6464;42.494;27.470;2023-07-20T06:01:06;99480.00;;;27.41;100.00
12801;BME280;6464;42.494;27.470;2023-07-20T06:03:34;99383.81;;;26.88;100.00
12801;BME280;6464;42.494;27.470;2023-07-20T06:06:04;99474.94;;;27.46;100.00
12801;BME280;6464;42.494;27.470;2023-07-20T06:08:32;99481.56;;;27.60;100.00
12801;BME280;6464;42.494;27.470;2023-07-20T06:10:59;99483.31;;;27.77;100.00
12801;BME280;6464;42.494;27.470;2023-07-20T06:13:26;99496.84;;;27.93;100.00
12801;BME280;6464;42.494;27.470;2023-07-20T06:15:54;99499.06;;;27.98;100.00
12801;BME280;6464;42.494;27.470;2023-07-20T06:18:27;99514.81;;;27.86;100.00
12801;BME280;6464;42.494;27.470;2023-07-20T06:20:54;99486.69;;;27.79;100.00
12801;BME280;6464;42.494;27.470;2023-07-20T06:23:21;99508.03;;;27.82;100.00
12801;BME280;6464;42.494;27.470;2023-07-20T06:25:47;99515.81;;;28.02;100.00
12801;BME280;6464;42.494;27.470;2023-07-20T06:28:14;99532.25;;;28.25;100.00
12801;BME280;6464;42.494;27.470;2023-07-20T06:30:43;99577.19;;;28.43;100.00
12801;BME280;6464;42.494;27.470;2023-07-20T06:33:12;99595.28;;;28.59;100.00
12801;BME280;6464;42.494;27.470;2023-07-20T06:35:41;99581.91;;;28.58;100.00
12801;BME280;6464;42.494;27.470;2023-07-20T06:38:12;99644.59;;;28.71;100.00
12801;BME280;6464;42.494;27.470;2023-07-20T06:40:39;99622.56;;;28.66;100.00
12801;BME280;6464;42.494;27.470;2023-07-20T06:43:05;99641.59;;;28.58;100.00
12801;BME280;6464;42.494;27.470;2023-07-20T06:45:36;99715.81;;;28.89;100.00
12801;BME280;6464;42.494;27.470;2023-07-20T06:48:06;99744.66;;;28.74;100.00
12801;BME280;6464;42.494;27.470;2023-07-20T06:50:37;99703.63;;;28.61;100.00
12801;BME280;6464;42.494;27.470;2023-07-20T06:53:05;99735.50;;;28.59;100.00
12801;BME280;6464;42.494;27.470;2023-07-20T06:55:38;99714.16;;;28.72;100.00
12801;BME280;6464;42.494;27.470;2023-07-20T06:58:07;99723.16;;;28.97;100.00
12801;BME280;6464;42.494;27.470;2023-07-20T07:00:34;99766.91;;;29.02;100.00
12801;BME280;6464;42.494;27.470;2023-07-20T07:03:03;99730.09;;;28.91;100.00
12801;BME280;6464;42.494;27.470;2023-07-20T07:05:34;99823.22;;;29.41;100.00
12801;BME280;6464;42.494;27.470;2023-07-20T07:08:04;99839.66;;;29.64;100.00
12801;BME280;6464;42.494;27.470;2023-07-20T07:10:31;99841.72;;;29.62;100.00
12801;BME280;6464;42.494;27.470;2023-07-20T07:12:58;99783.16;;;29.59;100.00
12801;BME280;6464;42.494;27.470;2023-07-20T07:15:32;99872.47;;;30.26;100.00
12801;BME280;6464;42.494;27.470;2023-07-20T07:18:01;99899.66;;;30.34;100.00
12801;BME280;6464;42.494;27.470;2023-07-20T07:20:28;99881.25;;;30.44;100.00
12801;BME280;6464;42.494;27.470;2023-07-20T07:22:58;99883.53;;;30.72;100.00
12801;BME280;6464;42.494;27.470;2023-07-20T07:25:33;100002.91;;;30.75;100.00
12801;BME280;6464;42.494;27.470;2023-07-20T07:28:00;99977.41;;;30.76;100.00
12801;BME280;6464;42.494;27.470;2023-07-20T07:30:27;99931.84;;;30.62;100.00
12801;BME280;6464;42.494;27.470;2023-07-20T07:33:00;99772.59;;;30.74;100.00
12801;BME280;6464;42.494;27.470;2023-07-20T07:35:27;99707.13;;;30.44;100.00
12801;BME280;6464;42.494;27.470;2023-07-20T07:37:54;99704.00;;;30.33;100.00
12801;BME280;6464;42.494;27.470;2023-07-20T07:40:20;99691.13;;;30.73;100.00
12801;BME280;6464;42.494;27.470;2023-07-20T07:42:49;99727.19;;;30.20;100.00
12801;BME280;6464;42.494;27.470;2023-07-20T07:45:17;99583.03;;;29.98;100.00
12801;BME280;6464;42.494;27.470;2023-07-20T07:47:48;99484.31;;;29.97;100.00
12801;BME280;6464;42.494;27.470;2023-07-20T07:50:16;99463.97;;;30.16;100.00
12801;BME280;6464;42.494;27.470;2023-07-20T07:52:46;99311.97;;;29.91;100.00
12801;BME280;6464;42.494;27.470;2023-07-20T07:55:18;99360.03;;;29.76;100.00
12801;BME280;6464;42.494;27.470;2023-07-20T07:57:45;99470.38;;;30.00;100.00
12801;BME280;6464;42.494;27.470;2023-07-20T08:00:16;99557.72;;;29.97;100.00
12801;BME280;6464;42.494;27.470;2023-07-20T08:02:44;99660.03;;;30.21;100.00
12801;BME280;6464;42.494;27.470;2023-07-20T08:05:13;99783.25;;;30.21;100.00
12801;BME280;6464;42.494;27.470;2023-07-20T08:07:40;99775.47;;;30.18;100.00
12801;BME280;6464;42.494;27.470;2023-07-20T08:10:08;99830.75;;;30.81;100.00
12801;BME280;6464;42.494;27.470;2023-07-20T08:12:35;99863.09;;;31.22;100.00
12801;BME280;6464;42.494;27.470;2023-07-20T08:15:03;99861.41;;;31.44;100.00
12801;BME280;6464;42.494;27.470;2023-07-20T08:17:31;99555.81;;;30.96;100.00
12801;BME280;6464;42.494;27.470;2023-07-20T08:19:58;99522.75;;;30.84;100.00
12801;BME280;6464;42.494;27.470;2023-07-20T08:22:25;99843.06;;;31.15;100.00
12801;BME280;6464;42.494;27.470;2023-07-20T08:24:55;99839.38;;;31.08;100.00
12801;BME280;6464;42.494;27.470;2023-07-20T08:27:22;99863.28;;;30.97;100.00
12801;BME280;6464;42.494;27.470;2023-07-20T08:29:51;99956.72;;;31.21;100.00
12801;BME280;6464;42.494;27.470;2023-07-20T08:32:19;100045.13;;;31.50;100.00
12801;BME280;6464;42.494;27.470;2023-07-20T08:34:50;100150.84;;;31.93;100.00
12801;BME280;6464;42.494;27.470;2023-07-20T08:37:20;100065.00;;;31.81;100.00
12801;BME280;6464;42.494;27.470;2023-07-20T08:39:47;100029.25;;;31.76;100.00
12801;BME280;6464;42.494;27.470;2023-07-20T08:42:14;100178.16;;;31.85;100.00
12801;BME280;6464;42.494;27.470;2023-07-20T08:44:42;100120.91;;;32.08;100.00
12801;BME280;6464;42.494;27.470;2023-07-20T08:47:10;100168.63;;;32.35;100.00
12801;BME280;6464;42.494;27.470;2023-07-20T08:49:41;99996.66;;;32.06;100.00
12801;BME280;6464;42.494;27.470;2023-07-20T08:52:10;99735.50;;;32.29;100.00
12801;BME280;6464;42.494;27.470;2023-07-20T08:54:39;99558.59;;;31.83;100.00
12801;BME280;6464;42.494;27.470;2023-07-20T08:57:07;99506.75;;;31.40;100.00
12801;BME280;6464;42.494;27.470;2023-07-20T08:59:38;99483.75;;;31.64;100.00
12801;BME280;6464;42.494;27.470;2023-07-20T09:02:05;99416.84;;;31.04;100.00
12801;BME280;6464;42.494;27.470;2023-07-20T09:04:34;99403.84;;;31.21;100.00
12801;BME280;6464;42.494;27.470;2023-07-20T09:07:01;99617.03;;;31.95;100.00
12801;BME280;6464;42.494;27.470;2023-07-20T09:09:30;99730.38;;;32.19;100.00
12801;BME280;6464;42.494;27.470;2023-07-20T09:11:57;99757.97;;;31.80;100.00
12801;BME280;6464;42.494;27.470;2023-07-20T09:14:24;99776.78;;;32.05;100.00
12801;BME280;6464;42.494;27.470;2023-07-20T09:16:53;99655.34;;;31.87;100.00
12801;BME280;6464;42.494;27.470;2023-07-20T09:19:21;99624.81;;;31.98;100.00
12801;BME280;6464;42.494;27.470;2023-07-20T09:21:57;99590.28;;;32.27;100.00
12801;BME280;6464;42.494;27.470;2023-07-20T09:24:30;99691.41;;;31.89;100.00
12801;BME280;6464;42.494;27.470;2023-07-20T09:26:57;99704.91;;;32.70;100.00
12801;BME280;6464;42.494;27.470;2023-07-20T09:29:30;99610.28;;;31.91;100.00
12801;BME280;6464;42.494;27.470;2023-07-20T09:32:01;99562.50;;;31.81;100.00
12801;BME280;6464;42.494;27.470;2023-07-20T09:34:28;99704.59;;;32.22;100.00
12801;BME280;6464;42.494;27.470;2023-07-20T09:36:57;99655.25;;;32.17;100.00
12801;BME280;6464;42.494;27.470;2023-07-20T09:39:25;99749.47;;;32.77;100.00
12801;BME280;6464;42.494;27.470;2023-07-20T09:42:00;99880.22;;;33.44;100.00
12801;BME280;6464;42.494;27.470;2023-07-20T09:44:35;99834.03;;;33.84;100.00
12801;BME280;6464;42.494;27.470;2023-07-20T09:47:03;99930.56;;;34.75;100.00
12801;BME280;6464;42.494;27.470;2023-07-20T09:49:30;100177.88;;;35.25;100.00
12801;BME280;6464;42.494;27.470;2023-07-20T09:52:00;100369.22;;;36.27;100.00
12801;BME280;6464;42.494;27.470;2023-07-20T09:54:32;100458.97;;;36.68;100.00
12801;BME280;6464;42.494;27.470;2023-07-20T09:57:02;100150.78;;;35.98;100.00
12801;BME280;6464;42.494;27.470;2023-07-20T09:59:29;99993.59;;;35.30;100.00
12801;BME280;6464;42.494;27.470;2023-07-20T10:01:58;99860.44;;;34.94;100.00
12801;BME280;6464;42.494;27.470;2023-07-20T10:04:31;99876.25;;;34.92;100.00
12801;BME280;6464;42.494;27.470;2023-07-20T10:07:04;100160.25;;;35.07;100.00
12801;BME280;6464;42.494;27.470;2023-07-20T10:09:39;100106.00;;;35.37;100.00
12801;BME280;6464;42.494;27.470;2023-07-20T10:12:09;99909.09;;;34.79;100.00
12801;BME280;6464;42.494;27.470;2023-07-20T10:14:41;99898.97;;;34.86;100.00
12801;BME280;6464;42.494;27.470;2023-07-20T10:17:14;99866.28;;;34.65;100.00
12801;BME280;6464;42.494;27.470;2023-07-20T10:19:49;99800.72;;;34.57;100.00
12801;BME280;6464;42.494;27.470;2023-07-20T10:22:19;99983.16;;;34.58;100.00
12801;BME280;6464;42.494;27.470;2023-07-20T10:24:49;99949.16;;;34.93;100.00
12801;BME280;6464;42.494;27.470;2023-07-20T10:27:23;99799.94;;;34.76;100.00
12801;BME280;6464;42.494;27.470;2023-07-20T10:29:53;99830.22;;;34.55;100.00
12801;BME280;6464;42.494;27.470;2023-07-20T10:32:27;99933.88;;;35.19;100.00
12801;BME280;6464;42.494;27.470;2023-07-20T10:34:56;99970.38;;;35.26;100.00
12801;BME280;6464;42.494;27.470;2023-07-20T10:37:53;99776.41;;;35.48;100.00
12801;BME280;6464;42.494;27.470;2023-07-20T10:40:27;99664.88;;;35.22;100.00
12801;BME280;6464;42.494;27.470;2023-07-20T10:43:01;99633.75;;;34.96;100.00
12801;BME280;6464;42.494;27.470;2023-07-20T10:45:39;99829.19;;;36.21;100.00
12801;BME280;6464;42.494;27.470;2023-07-20T10:48:12;99950.91;;;37.25;100.00
12801;BME280;6464;42.494;27.470;2023-07-20T10:50:40;99932.53;;;37.19;100.00
12801;BME280;6464;42.494;27.470;2023-07-20T10:53:11;99921.63;;;36.99;100.00
12801;BME280;6464;42.494;27.470;2023-07-20T10:55:38;99911.50;;;36.99;100.00
12801;BME280;6464;42.494;27.470;2023-07-20T10:58:11;99948.56;;;37.28;100.00
12801;BME280;6464;42.494;27.470;2023-07-20T11:00:55;100074.44;;;37.65;100.00
12801;BME280;6464;42.494;27.470;2023-07-20T11:03:29;99971.28;;;37.49;100.00
12801;BME280;6464;42.494;27.470;2023-07-20T11:05:57;100077.19;;;37.65;100.00
12801;BME280;6464;42.494;27.470;2023-07-20T11:08:40;100224.16;;;38.02;100.00
12801;BME280;6464;42.494;27.470;2023-07-20T11:11:27;100307.41;;;38.42;100.00
12801;BME280;6464;42.494;27.470;2023-07-20T11:14:00;100179.75;;;38.23;100.00
12801;BME280;6464;42.494;27.470;2023-07-20T11:16:39;100018.50;;;37.77;100.00
12801;BME280;6464;42.494;27.470;2023-07-20T11:19:14;99844.19;;;36.77;100.00
12801;BME280;6464;42.494;27.470;2023-07-20T11:21:43;99944.19;;;37.52;100.00
12801;BME280;6464;42.494;27.470;2023-07-20T11:24:10;99964.28;;;37.78;100.00
12801;BME280;6464;42.494;27.470;2023-07-20T11:26:45;100031.56;;;38.39;100.00
12801;BME280;6464;42.494;27.470;2023-07-20T11:29:17;99877.34;;;37.95;100.00
12801;BME280;6464;42.494;27.470;2023-07-20T11:31:58;99839.03;;;37.94;100.00
12801;BME280;6464;42.494;27.470;2023-07-20T11:34:25;99818.09;;;38.11;100.00
12801;BME280;6464;42.494;27.470;2023-07-20T11:36:54;99746.38;;;38.06;100.00
12801;BME280;6464;42.494;27.470;2023-07-20T11:39:29;99792.50;;;38.11;100.00
12801;BME280;6464;42.494;27.470;2023-07-20T11:41:57;99882.47;;;38.35;100.00
12801;BME280;6464;42.494;27.470;2023-07-20T11:44:30;99780.31;;;38.00;100.00
12801;BME280;6464;42.494;27.470;2023-07-20T11:47:00;99699.91;;;37.43;100.00
12801;BME280;6464;42.494;27.470;2023-07-20T11:49:30;99503.44;;;36.40;100.00
12801;BME280;6464;42.494;27.470;2023-07-20T11:51:59;99327.66;;;35.67;100.00
12801;BME280;6464;42.494;27.470;2023-07-20T11:54:27;99132.06;;;35.11;100.00
12801;BME280;6464;42.494;27.470;2023-07-20T11:56:54;99153.69;;;34.94;100.00
12801;BME280;6464;42.494;27.470;2023-07-20T11:59:22;99206.47;;;34.51;100.00
12801;BME280;6464;42.494;27.470;2023-07-20T12:01:53;99075.28;;;34.18;100.00
12801;BME280;6464;42.494;27.470;2023-07-20T12:04:25;99056.03;;;34.07;100.00
12801;BME280;6464;42.494;27.470;2023-07-20T12:06:53;99112.41;;;34.08;100.00
12801;BME280;6464;42.494;27.470;2023-07-20T12:09:21;99153.97;;;34.23;100.00
12801;BME280;6464;42.494;27.470;2023-07-20T12:11:51;99251.25;;;34.95;100.00
12801;BME280;6464;42.494;27.470;2023-07-20T12:14:18;99344.59;;;35.82;100.00
12801;BME280;6464;42.494;27.470;2023-07-20T12:16:54;99477.03;;;36.64;100.00
12801;BME280;6464;42.494;27.470;2023-07-20T12:19:25;99646.34;;;37.64;100.00
12801;BME280;6464;42.494;27.470;2023-07-20T12:22:05;99336.34;;;35.64;100.00
12801;BME280;6464;42.494;27.470;2023-07-20T12:24:42;99212.44;;;35.48;100.00
12801;BME280;6464;42.494;27.470;2023-07-20T12:27:13;98964.31;;;34.04;100.00
12801;BME280;6464;42.494;27.470;2023-07-20T12:29:43;99238.88;;;36.35;100.00
12801;BME280;6464;42.494;27.470;2023-07-20T12:32:14;99241.72;;;36.28;100.00
12801;BME280;6464;42.494;27.470;2023-07-20T12:34:44;99062.16;;;35.45;100.00
12801;BME280;6464;42.494;27.470;2023-07-20T12:37:18;99288.59;;;36.93;100.00
12801;BME280;6464;42.494;27.470;2023-07-20T12:39:46;99466.00;;;37.38;100.00
12801;BME280;6464;42.494;27.470;2023-07-20T12:42:16;99584.63;;;37.71;100.00
12801;BME280;6464;42.494;27.470;2023-07-20T12:44:43;99629.63;;;37.95;100.00
12801;BME280;6464;42.494;27.470;2023-07-20T12:47:11;99751.06;;;38.05;100.00
12801;BME280;6464;42.494;27.470;2023-07-20T12:49:39;99843.25;;;38.15;100.00
12801;BME280;6464;42.494;27.470;2023-07-20T12:52:08;99749.25;;;38.29;100.00
12801;BME280;6464;42.494;27.470;2023-07-20T12:54:40;99652.53;;;38.08;100.00
12801;BME280;6464;42.494;27.470;2023-07-20T12:57:07;99648.16;;;37.70;100.00
12801;BME280;6464;42.494;27.470;2023-07-20T12:59:34;99713.34;;;37.69;100.00
12801;BME280;6464;42.494;27.470;2023-07-20T13:02:03;99650.25;;;38.04;100.00
12801;BME280;6464;42.494;27.470;2023-07-20T13:04:30;99412.97;;;37.61;100.00
12801;BME280;6464;42.494;27.470;2023-07-20T13:07:00;99332.25;;;37.43;100.00
12801;BME280;6464;42.494;27.470;2023-07-20T13:09:27;99251.00;;;37.05;100.00
12801;BME280;6464;42.494;27.470;2023-07-20T13:11:55;99232.66;;;36.88;100.00
12801;BME280;6464;42.494;27.470;2023-07-20T13:14:24;99268.03;;;37.49;100.00
12801;BME280;6464;42.494;27.470;2023-07-20T13:16:50;99226.31;;;36.87;100.00
12801;BME280;6464;42.494;27.470;2023-07-20T13:19:23;99212.00;;;36.85;100.00
12801;BME280;6464;42.494;27.470;2023-07-20T13:21:50;99094.44;;;36.64;100.00
12801;BME280;6464;42.494;27.470;2023-07-20T13:24:20;99120.47;;;36.73;100.00
12801;BME280;6464;42.494;27.470;2023-07-20T13:26:47;99203.91;;;36.90;100.00
12801;BME280;6464;42.494;27.470;2023-07-20T13:29:18;99094.31;;;36.47;100.00
12801;BME280;6464;42.494;27.470;2023-07-20T13:31:47;99140.75;;;36.60;100.00
12801;BME280;6464;42.494;27.470;2023-07-20T13:34:22;99194.25;;;36.58;100.00
12801;BME280;6464;42.494;27.470;2023-07-20T13:36:51;99145.09;;;36.38;100.00
12801;BME280;6464;42.494;27.470;2023-07-20T13:39:24;99080.50;;;35.93;100.00
12801;BME280;6464;42.494;27.470;2023-07-20T13:41:53;99123.59;;;36.35;100.00
12801;BME280;6464;42.494;27.470;2023-07-20T13:44:22;99138.59;;;36.20;100.00
12801;BME280;6464;42.494;27.470;2023-07-20T13:46:49;99159.19;;;36.11;100.00
12801;BME280;6464;42.494;27.470;2023-07-20T13:49:24;99215.72;;;36.30;100.00
12801;BME280;6464;42.494;27.470;2023-07-20T13:51:55;99061.66;;;35.97;100.00
12801;BME280;6464;42.494;27.470;2023-07-20T13:54:24;99062.00;;;36.19;100.00
12801;BME280;6464;42.494;27.470;2023-07-20T13:56:56;99019.38;;;36.04;100.00
12801;BME280;6464;42.494;27.470;2023-07-20T13:59:23;98997.31;;;35.81;100.00
12801;BME280;6464;42.494;27.470;2023-07-20T14:01:50;98968.69;;;35.77;100.00
12801;BME280;6464;42.494;27.470;2023-07-20T14:04:27;99023.47;;;35.84;100.00
12801;BME280;6464;42.494;27.470;2023-07-20T14:06:54;99088.91;;;35.98;100.00
12801;BME280;6464;42.494;27.470;2023-07-20T14:09:21;98935.38;;;35.50;100.00
12801;BME280;6464;42.494;27.470;2023-07-20T14:11:53;98942.94;;;35.78;100.00
12801;BME280;6464;42.494;27.470;2023-07-20T14:14:20;98976.41;;;35.98;100.00
12801;BME280;6464;42.494;27.470;2023-07-20T14:16:49;98891.78;;;35.42;100.00
12801;BME280;6464;42.494;27.470;2023-07-20T14:19:18;98798.78;;;34.20;100.00
12801;BME280;6464;42.494;27.470;2023-07-20T14:21:47;98710.66;;;33.06;100.00
12801;BME280;6464;42.494;27.470;2023-07-20T14:24:18;98691.94;;;32.46;100.00
12801;BME280;6464;42.494;27.470;2023-07-20T14:26:44;98662.97;;;32.01;100.00
12801;BME280;6464;42.494;27.470;2023-07-20T14:29:14;98713.41;;;32.68;100.00
12801;BME280;6464;42.494;27.470;2023-07-20T14:31:45;98687.69;;;32.12;100.00
12801;BME280;6464;42.494;27.470;2023-07-20T14:34:15;98669.31;;;31.81;100.00
12801;BME280;6464;42.494;27.470;2023-07-20T14:36:44;98670.16;;;31.88;100.00
12801;BME280;6464;42.494;27.470;2023-07-20T14:39:11;98729.84;;;32.16;100.00
12801;BME280;6464;42.494;27.470;2023-07-20T14:41:41;98750.56;;;32.24;100.00
12801;BME280;6464;42.494;27.470;2023-07-20T14:44:07;98782.44;;;32.37;100.00
12801;BME280;6464;42.494;27.470;2023-07-20T14:46:36;98820.47;;;32.05;100.00
12801;BME280;6464;42.494;27.470;2023-07-20T14:49:05;98763.72;;;31.82;100.00
12801;BME280;6464;42.494;27.470;2023-07-20T14:51:32;98844.97;;;32.38;100.00
12801;BME280;6464;42.494;27.470;2023-07-20T14:54:01;98857.34;;;32.92;100.00
12801;BME280;6464;42.494;27.470;2023-07-20T14:56:28;98866.19;;;32.94;100.00
12801;BME280;6464;42.494;27.470;2023-07-20T14:58:55;98825.63;;;32.33;100.00
12801;BME280;6464;42.494;27.470;2023-07-20T15:01:26;98771.47;;;31.39;100.00
12801;BME280;6464;42.494;27.470;2023-07-20T15:03:59;98768.97;;;31.44;100.00
12801;BME280;6464;42.494;27.470;2023-07-20T15:06:29;98783.84;;;31.35;100.00
12801;BME280;6464;42.494;27.470;2023-07-20T15:09:00;98782.06;;;30.87;100.00
12801;BME280;6464;42.494;27.470;2023-07-20T15:11:30;98802.56;;;30.77;100.00
12801;BME280;6464;42.494;27.470;2023-07-20T15:13:57;98787.47;;;30.74;100.00
12801;BME280;6464;42.494;27.470;2023-07-20T15:16:29;98822.78;;;30.67;100.00
12801;BME280;6464;42.494;27.470;2023-07-20T15:19:01;98814.09;;;30.37;100.00
12801;BME280;6464;42.494;27.470;2023-07-20T15:21:28;98762.00;;;29.99;100.00
12801;BME280;6464;42.494;27.470;2023-07-20T15:26:33;98787.28;;;30.28;100.00
12801;BME280;6464;42.494;27.470;2023-07-20T15:29:00;98784.94;;;29.90;100.00
12801;BME280;6464;42.494;27.470;2023-07-20T15:31:27;98793.84;;;29.77;100.00
12801;BME280;6464;42.494;27.470;2023-07-20T15:33:55;98874.97;;;29.59;100.00
12801;BME280;6464;42.494;27.470;2023-07-20T15:36:24;98841.59;;;28.20;100.00
12801;BME280;6464;42.494;27.470;2023-07-20T15:38:50;98851.97;;;26.87;100.00
12801;BME280;6464;42.494;27.470;2023-07-20T15:41:19;98923.53;;;25.72;100.00
12801;BME280;6464;42.494;27.470;2023-07-20T15:43:49;98898.69;;;25.11;100.00
12801;BME280;6464;42.494;27.470;2023-07-20T15:46:46;99003.50;;;25.06;100.00
12801;BME280;6464;42.494;27.470;2023-07-20T15:49:14;99089.25;;;25.28;100.00
12801;BME280;6464;42.494;27.470;2023-07-20T15:51:42;98918.94;;;24.73;100.00
12801;BME280;6464;42.494;27.470;2023-07-20T15:54:13;98975.66;;;24.63;100.00
12801;BME280;6464;42.494;27.470;2023-07-20T15:56:41;98932.81;;;24.86;100.00
12801;BME280;6464;42.494;27.470;2023-07-20T15:59:10;98918.78;;;25.33;100.00
12801;BME280;6464;42.494;27.470;2023-07-20T16:01:41;98704.63;;;24.85;100.00
12801;BME280;6464;42.494;27.470;2023-07-20T16:04:09;98707.47;;;25.41;100.00
12801;BME280;6464;42.494;27.470;2023-07-20T16:06:36;98734.09;;;25.52;100.00
12801;BME280;6464;42.494;27.470;2023-07-20T16:09:08;98868.53;;;25.64;100.00
12801;BME280;6464;42.494;27.470;2023-07-20T16:11:37;99005.22;;;25.74;100.00
12801;BME280;6464;42.494;27.470;2023-07-20T16:14:05;99088.84;;;25.49;100.00
12801;BME280;6464;42.494;27.470;2023-07-20T16:16:33;99127.09;;;25.45;100.00
12801;BME280;6464;42.494;27.470;2023-07-20T16:19:00;99080.88;;;25.48;100.00
12801;BME280;6464;42.494;27.470;2023-07-20T16:21:29;98943.38;;;25.22;100.00
12801;BME280;6464;42.494;27.470;2023-07-20T16:23:59;98943.94;;;25.66;100.00
12801;BME280;6464;42.494;27.470;2023-07-20T16:26:27;98930.06;;;25.20;100.00
12801;BME280;6464;42.494;27.470;2023-07-20T16:28:54;98918.75;;;25.17;100.00
12801;BME280;6464;42.494;27.470;2023-07-20T16:31:26;98953.25;;;25.80;100.00
12801;BME280;6464;42.494;27.470;2023-07-20T16:33:53;98988.50;;;25.70;100.00
12801;BME280;6464;42.494;27.470;2023-07-20T16:36:19;98902.72;;;25.07;100.00
12801;BME280;6464;42.494;27.470;2023-07-20T16:38:47;98923.28;;;25.08;100.00
12801;BME280;6464;42.494;27.470;2023-07-20T16:41:15;98999.91;;;25.48;100.00
12801;BME280;6464;42.494;27.470;2023-07-20T16:43:46;98985.09;;;25.44;100.00
12801;BME280;6464;42.494;27.470;2023-07-20T16:46:13;98985.59;;;25.47;100.00
12801;BME280;6464;42.494;27.470;2023-07-20T16:48:40;99080.59;;;25.67;100.00
12801;BME280;6464;42.494;27.470;2023-07-20T16:51:09;99097.94;;;25.14;100.00
12801;BME280;6464;42.494;27.470;2023-07-20T16:53:40;99140.78;;;25.17;100.00
12801;BME280;6464;42.494;27.470;2023-07-20T16:56:07;99090.19;;;25.11;100.00
12801;BME280;6464;42.494;27.470;2023-07-20T16:58:39;99066.75;;;25.54;100.00
12801;BME280;6464;42.494;27.470;2023-07-20T17:01:07;99041.63;;;25.53;100.00
12801;BME280;6464;42.494;27.470;2023-07-20T17:03:35;99068.44;;;25.55;100.00
12801;BME280;6464;42.494;27.470;2023-07-20T17:06:03;99050.41;;;25.13;100.00
12801;BME280;6464;42.494;27.470;2023-07-20T17:08:32;99081.16;;;25.28;100.00